Terminal Aerodrome Forecast
Issued by NWS Albany, NY

Current Version | Previous Version | Text Only | Print | Product List | Glossary On
Versions: 1 2 3 4 5 6 7 8 9 10 11 12 13 14 15 16 17 18
000 FTUS41 KALY 211132 TAFALB TAF KALB 211132Z 2112/2212 VRB03KT P6SM FEW250 FM211500 16008G17KT P6SM BKN150 OVC200 FM212300 16008KT P6SM BKN050 OVC150 FM220400 17007KT 4SM -SHRA BKN025 OVC050 FM220900 VRB03KT 3SM BR SCT008 BKN015=

USA.gov is the U.S. government's official web portal to all federal, state and local government web resources and services.